Flight Track Log - Related Links

Times and Time Zones

All times are in EDT time to prevent confusion due to time zone crossing. See the N195JG flight status page for this flight to view local times or setup timezone preferences in your user account.

Time Position Orientation Groundspeed Altitude Reporting Facility
EDT Latitude Longitude Course Direction KTS MPH feet Rate Location/Type
Wed 05:39:14 PM 36.1167 -86.6667 165° South 136 157 1,200  Level Nashville TRACON
Wed 05:40:26 PM 36.0667 -86.6500 165° South 146 168 3,100 1,545 Climbing Nashville TRACON
Wed 05:41:26 PM 36.0167 -86.6500 180° South 152 175 4,600 1,350 Climbing Nashville TRACON
Wed 05:42:26 PM 35.9667 -86.6333 165° South 171 197 5,800 1,250 Climbing Nashville TRACON
Wed 05:43:26 PM 35.9167 -86.6333 180° South 181 208 7,100 1,148 Climbing Nashville TRACON
Wed 05:44:21 PM 35.8833 -86.6167 158° South 199 229 8,000 1,062 Climbing Nashville TRACON
Wed 05:45:19 PM 35.8364 -86.5903 155° Southeast 206 237 9,100 1,271 Climbing Memphis Center
Wed 05:46:19 PM 35.7894 -86.5517 146° Southeast 213 245 10,500 1,400 Climbing Memphis Center
Wed 05:47:19 PM 35.7444 -86.5128 145° Southeast 208 239 11,900 1,400 Climbing Memphis Center
Wed 05:48:19 PM 35.7036 -86.4686 139° Southeast 198 228 13,300 1,400 Climbing Memphis Center
Wed 05:49:19 PM 35.6625 -86.4244 139° Southeast 191 220 14,700 1,400 Climbing Memphis Center
Wed 05:50:19 PM 35.6214 -86.3781 137° Southeast 191 220 16,100 1,400 Climbing Memphis Center
Wed 05:51:19 PM 35.5761 -86.3292 139° Southeast 191 220 17,500 1,350 Climbing Memphis Center
Wed 05:52:19 PM 35.5350 -86.2853 139° Southeast 191 220 18,800 800 Climbing Memphis Center
Wed 05:53:19 PM 35.4917 -86.2389 139° Southeast 196 226 19,100 150 Climbing Memphis Center
Wed 05:54:19 PM 35.4442 -86.1878 139° Southeast 229 264 19,100  Level Memphis Center
Wed 05:55:19 PM 35.3922 -86.1344 140° Southeast 243 280 19,100  Level Memphis Center
Wed 05:56:19 PM 35.3422 -86.0758 136° Southeast 243 280 19,100  Level Memphis Center
Wed 05:57:19 PM 35.2903 -86.0225 140° Southeast 243 280 19,100  Level Memphis Center
Wed 05:58:42 PM 35.2153 -85.9403 138° Southeast 234 269 19,100  Level Atlanta Center
Wed 05:59:42 PM 35.1703 -85.8911 138° Southeast 240 276 19,100  Level Atlanta Center
Wed 06:00:42 PM 35.1189 -85.8392 140° Southeast 240 276 19,100  Level Atlanta Center
Wed 06:01:42 PM 35.0675 -85.7847 139° Southeast 240 276 19,100  Level Atlanta Center
Wed 06:02:42 PM 35.0161 -85.7278 138° Southeast 240 276 19,100  Level Atlanta Center
Wed 06:03:42 PM 34.9667 -85.6736 138° Southeast 245 282 19,100  Level Atlanta Center
Wed 06:04:42 PM 34.9133 -85.6169 139° Southeast 250 288 19,100  Level Atlanta Center
Wed 06:05:42 PM 34.8617 -85.5678 142° Southeast 250 288 19,100  Level Atlanta Center
Wed 06:06:42 PM 34.7997 -85.5261 151° Southeast 250 288 19,100  Level Atlanta Center
Wed 06:07:42 PM 34.7375 -85.4922 156° South 250 288 19,100 -300 Level Atlanta Center
Wed 06:08:42 PM 34.6772 -85.4508 151° Southeast 250 288 18,500 -750 Descending Atlanta Center
Wed 06:09:42 PM 34.6172 -85.4169 155° Southeast 245 282 17,600 -950 Descending Atlanta Center
Wed 06:10:42 PM 34.5592 -85.3781 151° Southeast 240 276 16,600 -950 Descending Atlanta Center
Wed 06:11:42 PM 34.5053 -85.3394 149° Southeast 234 269 15,700 -900 Descending Atlanta Center
Wed 06:12:42 PM 34.4578 -85.2883 138° Southeast 234 269 14,800 -900 Descending Atlanta Center
Wed 06:13:42 PM 34.4189 -85.2272 128° Southeast 228 262 13,900 -900 Descending Atlanta Center
Wed 06:14:42 PM 34.3778 -85.1614 127° Southeast 223 257 13,000 -950 Descending Atlanta Center
Wed 06:15:42 PM 34.3406 -85.1056 129° Southeast 223 257 12,000 -950 Descending Atlanta Center
Wed 06:16:42 PM 34.3058 -85.0422 124° Southeast 223 257 11,100 -950 Descending Atlanta Center
Wed 06:17:42 PM 34.2706 -84.9839 126° Southeast 228 262 10,100 -950 Descending Atlanta Center
Wed 06:18:42 PM 34.2356 -84.9258 126° Southeast 228 262 9,200 -950 Descending Atlanta Center
Wed 06:19:42 PM 34.1983 -84.8700 129° Southeast 223 257 8,200 -850 Descending Atlanta Center
Wed 06:20:42 PM 34.1592 -84.8344 143° Southeast 213 245 7,500 -850 Descending Atlanta Center
Wed 06:21:42 PM 34.1114 -84.7967 147° Southeast 200 230 6,500 -950 Descending Atlanta Center
Wed 06:22:42 PM 34.0969 -84.7286 104° East 185 213 5,600 -900 Descending Atlanta Center
Wed 06:23:42 PM 34.0933 -84.6633 94° East 190 219 4,700 -800 Descending Atlanta Center
Wed 06:24:42 PM 34.0872 -84.6006 97° East 195 224 4,000 -563 Descending Atlanta Center
Wed 06:26:54 PM 34.0500 -84.5000 114° Southeast 153 176 2,900 -594 Descending Atlanta TRACON
Wed 06:27:54 PM 34.0167 -84.5167 203° Southwest 122 140 2,100 -650 Descending Atlanta TRACON
Wed 06:28:54 PM 34.0167 -84.5500 270° West 109 125 1,600 -500 Descending Atlanta TRACON
Wed 06:30:00 PM 34.0132 -84.5971 239° Southwest  Level Estimated

Login

Don't have an account? Register now (free) for customized features, flight alerts, and more!